Aviation Digital Data Service (ADDS)

Output produced by METARs form (0730 UTC 27 February 2015)
found at http://www.aviationweather.gov/adds/metars/
 
SEGU 270700Z VRB02KT 4000 -RA FEW006 BKN013 OVC080 24/22 Q1010 TEMPO 2000 RMK A2983
SEGU 270433Z 2706/2806 23005KT 9999 FEW010 BKN020 BKN080 
     TEMPO 2707/2 711 8000 RA 
     FM271300 VRB03KT 9999 BKN020 BKN090 
     FM271800 05006KT 9999 SCT025 SCT100 
     TEMPO 2721/2724 SHRA BKN020 
     FM280000 32004KT 9999 FEW010 BKN020 BKN090 TX32/2720Z TN24/2711Z
       
SEMT 270600Z 18004KT 9999 BKN020 25/23 Q1011
SEMT 270433Z 2706/2806 21005KT 9999 OVC020 
     FM271500 21010KT 9999 SCT0 23 
     FM280300 19004KT 9999 BKN020 TX30/2720Z TN24/2710Z